sensor_id;sensor_type;location;lat;lon;timestamp;pressure;altitude;pressure_sealevel;temperature;humidity
47670;BME280;33408;52.062;11.722;2022-07-06T00:02:06;101746.28;;;17.81;69.41
47670;BME280;33408;52.062;11.722;2022-07-06T00:04:33;101742.38;;;17.94;69.97
47670;BME280;33408;52.062;11.722;2022-07-06T00:06:59;101747.47;;;17.99;69.40
47670;BME280;33408;52.062;11.722;2022-07-06T00:09:27;101739.97;;;17.86;69.18
47670;BME280;33408;52.062;11.722;2022-07-06T00:11:54;101739.91;;;17.90;69.51
47670;BME280;33408;52.062;11.722;2022-07-06T00:14:21;101748.75;;;17.85;69.80
47670;BME280;33408;52.062;11.722;2022-07-06T00:16:47;101752.38;;;17.81;69.79
47670;BME280;33408;52.062;11.722;2022-07-06T00:19:14;101750.88;;;17.74;69.82
47670;BME280;33408;52.062;11.722;2022-07-06T00:21:40;101749.75;;;17.81;70.17
47670;BME280;33408;52.062;11.722;2022-07-06T00:24:07;101745.91;;;17.65;70.54
47670;BME280;33408;52.062;11.722;2022-07-06T00:26:35;101747.00;;;17.58;70.93
47670;BME280;33408;52.062;11.722;2022-07-06T00:29:02;101743.50;;;17.59;71.29
47670;BME280;33408;52.062;11.722;2022-07-06T00:31:28;101745.34;;;17.55;71.74
47670;BME280;33408;52.062;11.722;2022-07-06T00:33:55;101752.88;;;17.66;71.46
47670;BME280;33408;52.062;11.722;2022-07-06T00:36:22;101746.78;;;17.65;71.31
47670;BME280;33408;52.062;11.722;2022-07-06T00:38:48;101742.97;;;17.47;72.50
47670;BME280;33408;52.062;11.722;2022-07-06T00:41:15;101746.53;;;17.45;72.50
47670;BME280;33408;52.062;11.722;2022-07-06T00:43:50;101738.38;;;17.54;72.65
47670;BME280;33408;52.062;11.722;2022-07-06T00:46:17;101748.75;;;17.29;73.74
47670;BME280;33408;52.062;11.722;2022-07-06T00:48:44;101744.97;;;17.39;73.91
47670;BME280;33408;52.062;11.722;2022-07-06T00:51:12;101748.44;;;17.40;74.30
47670;BME280;33408;52.062;11.722;2022-07-06T00:53:39;101755.38;;;17.42;74.38
47670;BME280;33408;52.062;11.722;2022-07-06T00:56:06;101750.53;;;17.28;74.97
47670;BME280;33408;52.062;11.722;2022-07-06T00:58:33;101743.91;;;17.45;75.07
47670;BME280;33408;52.062;11.722;2022-07-06T01:01:01;101747.47;;;17.44;75.24
47670;BME280;33408;52.062;11.722;2022-07-06T01:03:28;101740.16;;;17.54;74.66
47670;BME280;33408;52.062;11.722;2022-07-06T01:05:54;101741.28;;;17.45;74.36
47670;BME280;33408;52.062;11.722;2022-07-06T01:08:21;101737.06;;;17.41;74.82
47670;BME280;33408;52.062;11.722;2022-07-06T01:10:48;101738.63;;;17.46;74.90
47670;BME280;33408;52.062;11.722;2022-07-06T01:13:15;101744.78;;;17.45;74.89
47670;BME280;33408;52.062;11.722;2022-07-06T01:15:41;101742.94;;;17.49;74.79
47670;BME280;33408;52.062;11.722;2022-07-06T01:18:10;101742.31;;;17.41;74.72
47670;BME280;33408;52.062;11.722;2022-07-06T01:20:39;101749.19;;;17.43;74.65
47670;BME280;33408;52.062;11.722;2022-07-06T01:23:05;101740.41;;;17.46;74.93
47670;BME280;33408;52.062;11.722;2022-07-06T01:25:32;101739.72;;;17.39;74.82
47670;BME280;33408;52.062;11.722;2022-07-06T01:27:59;101747.28;;;17.50;74.87
47670;BME280;33408;52.062;11.722;2022-07-06T01:30:25;101739.28;;;17.53;74.47
47670;BME280;33408;52.062;11.722;2022-07-06T01:32:52;101746.78;;;17.37;74.62
47670;BME280;33408;52.062;11.722;2022-07-06T01:35:19;101744.22;;;17.36;75.02
47670;BME280;33408;52.062;11.722;2022-07-06T01:37:47;101733.00;;;17.30;75.38
47670;BME280;33408;52.062;11.722;2022-07-06T01:40:14;101738.00;;;17.38;75.37
47670;BME280;33408;52.062;11.722;2022-07-06T01:42:41;101732.47;;;17.47;75.45
47670;BME280;33408;52.062;11.722;2022-07-06T01:45:09;101736.84;;;17.48;74.82
47670;BME280;33408;52.062;11.722;2022-07-06T01:47:36;101736.81;;;17.20;75.64
47670;BME280;33408;52.062;11.722;2022-07-06T01:50:05;101730.59;;;17.24;75.90
47670;BME280;33408;52.062;11.722;2022-07-06T01:52:32;101730.69;;;17.21;76.16
47670;BME280;33408;52.062;11.722;2022-07-06T01:55:00;101733.25;;;17.23;76.02
47670;BME280;33408;52.062;11.722;2022-07-06T01:57:27;101730.19;;;17.08;76.88
47670;BME280;33408;52.062;11.722;2022-07-06T01:59:54;101737.22;;;17.06;76.33
47670;BME280;33408;52.062;11.722;2022-07-06T02:02:20;101736.41;;;17.04;76.32
47670;BME280;33408;52.062;11.722;2022-07-06T02:04:47;101739.19;;;16.98;76.55
47670;BME280;33408;52.062;11.722;2022-07-06T02:07:13;101737.22;;;16.75;76.29
47670;BME280;33408;52.062;11.722;2022-07-06T02:09:40;101735.31;;;16.80;76.38
47670;BME280;33408;52.062;11.722;2022-07-06T02:12:08;101733.84;;;16.71;75.61
47670;BME280;33408;52.062;11.722;2022-07-06T02:14:35;101735.78;;;16.65;75.37
47670;BME280;33408;52.062;11.722;2022-07-06T02:17:01;101741.97;;;16.61;75.57
47670;BME280;33408;52.062;11.722;2022-07-06T02:19:28;101746.84;;;16.74;75.35
47670;BME280;33408;52.062;11.722;2022-07-06T02:21:55;101751.41;;;16.66;75.87
47670;BME280;33408;52.062;11.722;2022-07-06T02:24:21;101749.72;;;16.65;76.09
47670;BME280;33408;52.062;11.722;2022-07-06T02:26:48;101746.88;;;16.73;75.67
47670;BME280;33408;52.062;11.722;2022-07-06T02:29:16;101754.19;;;16.62;76.27
47670;BME280;33408;52.062;11.722;2022-07-06T02:31:42;101750.28;;;16.76;77.02
47670;BME280;33408;52.062;11.722;2022-07-06T02:34:09;101747.22;;;16.61;76.32
47670;BME280;33408;52.062;11.722;2022-07-06T02:36:35;101752.28;;;16.67;76.22
47670;BME280;33408;52.062;11.722;2022-07-06T02:39:02;101745.44;;;16.61;76.59
47670;BME280;33408;52.062;11.722;2022-07-06T02:41:29;101750.69;;;16.61;76.86
47670;BME280;33408;52.062;11.722;2022-07-06T02:43:55;101755.44;;;16.47;76.19
47670;BME280;33408;52.062;11.722;2022-07-06T02:46:23;101752.84;;;16.45;76.99
47670;BME280;33408;52.062;11.722;2022-07-06T02:48:50;101754.78;;;16.38;76.25
47670;BME280;33408;52.062;11.722;2022-07-06T02:51:16;101754.31;;;16.57;76.95
47670;BME280;33408;52.062;11.722;2022-07-06T02:53:43;101754.03;;;16.66;75.43
47670;BME280;33408;52.062;11.722;2022-07-06T02:56:10;101757.81;;;16.56;75.82
47670;BME280;33408;52.062;11.722;2022-07-06T02:58:36;101755.72;;;16.69;76.71
47670;BME280;33408;52.062;11.722;2022-07-06T03:01:03;101757.44;;;16.37;76.47
47670;BME280;33408;52.062;11.722;2022-07-06T03:03:31;101758.22;;;16.40;76.76
47670;BME280;33408;52.062;11.722;2022-07-06T03:05:57;101752.94;;;16.42;77.45
47670;BME280;33408;52.062;11.722;2022-07-06T03:08:24;101750.78;;;16.25;77.97
47670;BME280;33408;52.062;11.722;2022-07-06T03:10:50;101762.16;;;16.22;78.00
47670;BME280;33408;52.062;11.722;2022-07-06T03:13:17;101766.50;;;16.23;78.16
47670;BME280;33408;52.062;11.722;2022-07-06T03:15:44;101769.09;;;16.25;78.82
47670;BME280;33408;52.062;11.722;2022-07-06T03:18:10;101778.22;;;16.09;78.93
47670;BME280;33408;52.062;11.722;2022-07-06T03:20:38;101776.28;;;16.17;78.80
47670;BME280;33408;52.062;11.722;2022-07-06T03:23:05;101778.88;;;16.17;78.42
47670;BME280;33408;52.062;11.722;2022-07-06T03:25:31;101776.28;;;16.17;78.59
47670;BME280;33408;52.062;11.722;2022-07-06T03:27:58;101778.75;;;16.23;78.48
47670;BME280;33408;52.062;11.722;2022-07-06T03:30:25;101779.91;;;16.10;79.03
47670;BME280;33408;52.062;11.722;2022-07-06T03:32:52;101783.56;;;16.04;79.07
47670;BME280;33408;52.062;11.722;2022-07-06T03:35:18;101780.56;;;16.19;78.86
47670;BME280;33408;52.062;11.722;2022-07-06T03:37:46;101775.28;;;16.21;78.68
47670;BME280;33408;52.062;11.722;2022-07-06T03:40:13;101779.81;;;16.14;79.04
47670;BME280;33408;52.062;11.722;2022-07-06T03:42:40;101768.06;;;16.31;78.35
47670;BME280;33408;52.062;11.722;2022-07-06T03:45:08;101760.19;;;16.31;78.31
47670;BME280;33408;52.062;11.722;2022-07-06T03:47:35;101767.25;;;16.29;78.61
47670;BME280;33408;52.062;11.722;2022-07-06T03:50:01;101766.63;;;16.19;78.43
47670;BME280;33408;52.062;11.722;2022-07-06T03:52:28;101764.28;;;17.07;75.66
47670;BME280;33408;52.062;11.722;2022-07-06T03:54:56;101768.78;;;17.31;72.93
47670;BME280;33408;52.062;11.722;2022-07-06T03:57:23;101766.28;;;18.12;70.08
47670;BME280;33408;52.062;11.722;2022-07-06T03:59:50;101763.13;;;17.45;70.29
47670;BME280;33408;52.062;11.722;2022-07-06T04:02:17;101768.38;;;17.45;70.92
47670;BME280;33408;52.062;11.722;2022-07-06T04:04:44;101770.03;;;17.48;71.14
47670;BME280;33408;52.062;11.722;2022-07-06T04:07:10;101775.44;;;17.42;71.91
47670;BME280;33408;52.062;11.722;2022-07-06T04:09:37;101780.59;;;16.85;73.44
47670;BME280;33408;52.062;11.722;2022-07-06T04:12:06;101784.50;;;16.69;77.19
47670;BME280;33408;52.062;11.722;2022-07-06T04:14:32;101782.22;;;16.56;76.17
47670;BME280;33408;52.062;11.722;2022-07-06T04:17:00;101787.56;;;16.19;77.32
47670;BME280;33408;52.062;11.722;2022-07-06T04:19:47;101786.50;;;17.52;73.68
47670;BME280;33408;52.062;11.722;2022-07-06T04:22:14;101789.09;;;18.62;66.97
47670;BME280;33408;52.062;11.722;2022-07-06T04:24:41;101778.59;;;19.78;60.96
47670;BME280;33408;52.062;11.722;2022-07-06T04:27:09;101781.13;;;20.65;57.57
47670;BME280;33408;52.062;11.722;2022-07-06T04:29:35;101780.78;;;21.51;54.49
47670;BME280;33408;52.062;11.722;2022-07-06T04:32:02;101780.63;;;21.54;53.78
47670;BME280;33408;52.062;11.722;2022-07-06T04:34:29;101790.00;;;20.83;55.38
47670;BME280;33408;52.062;11.722;2022-07-06T04:36:56;101788.75;;;20.92;54.58
47670;BME280;33408;52.062;11.722;2022-07-06T04:39:22;101796.44;;;20.35;55.94
47670;BME280;33408;52.062;11.722;2022-07-06T04:41:49;101787.66;;;20.77;56.14
47670;BME280;33408;52.062;11.722;2022-07-06T04:44:17;101791.16;;;20.97;55.14
47670;BME280;33408;52.062;11.722;2022-07-06T04:46:43;101786.72;;;19.94;56.57
47670;BME280;33408;52.062;11.722;2022-07-06T04:49:10;101793.91;;;19.91;57.98
47670;BME280;33408;52.062;11.722;2022-07-06T04:51:36;101795.91;;;19.62;59.14
47670;BME280;33408;52.062;11.722;2022-07-06T04:54:03;101788.22;;;19.79;59.87
47670;BME280;33408;52.062;11.722;2022-07-06T04:56:30;101797.69;;;20.26;58.07
47670;BME280;33408;52.062;11.722;2022-07-06T04:58:57;101790.84;;;18.86;61.16
47670;BME280;33408;52.062;11.722;2022-07-06T05:01:25;101790.88;;;19.34;61.86
47670;BME280;33408;52.062;11.722;2022-07-06T05:03:51;101801.47;;;18.58;64.16
47670;BME280;33408;52.062;11.722;2022-07-06T05:06:18;101794.47;;;18.32;65.92
47670;BME280;33408;52.062;11.722;2022-07-06T05:08:45;101796.84;;;18.65;65.63
47670;BME280;33408;52.062;11.722;2022-07-06T05:11:11;101796.69;;;18.17;67.72
47670;BME280;33408;52.062;11.722;2022-07-06T05:13:39;101800.59;;;18.06;68.50
47670;BME280;33408;52.062;11.722;2022-07-06T05:16:06;101793.63;;;18.04;68.51
47670;BME280;33408;52.062;11.722;2022-07-06T05:18:34;101795.44;;;19.05;65.27
47670;BME280;33408;52.062;11.722;2022-07-06T05:21:01;101801.84;;;19.21;64.62
47670;BME280;33408;52.062;11.722;2022-07-06T05:23:27;101802.69;;;18.73;64.79
47670;BME280;33408;52.062;11.722;2022-07-06T05:25:54;101806.91;;;18.27;67.34
47670;BME280;33408;52.062;11.722;2022-07-06T05:28:21;101803.56;;;17.95;69.95
47670;BME280;33408;52.062;11.722;2022-07-06T05:30:47;101813.63;;;17.52;72.35
47670;BME280;33408;52.062;11.722;2022-07-06T05:33:14;101818.72;;;17.57;72.79
47670;BME280;33408;52.062;11.722;2022-07-06T05:35:42;101813.00;;;18.27;70.50
47670;BME280;33408;52.062;11.722;2022-07-06T05:38:09;101821.34;;;18.13;69.11
47670;BME280;33408;52.062;11.722;2022-07-06T05:40:35;101808.34;;;17.80;70.27
47670;BME280;33408;52.062;11.722;2022-07-06T05:43:02;101819.16;;;17.71;71.73
47670;BME280;33408;52.062;11.722;2022-07-06T05:45:29;101812.56;;;17.86;72.80
47670;BME280;33408;52.062;11.722;2022-07-06T05:47:56;101812.50;;;17.89;72.35
47670;BME280;33408;52.062;11.722;2022-07-06T05:50:41;101814.25;;;17.89;72.51
47670;BME280;33408;52.062;11.722;2022-07-06T05:53:08;101811.47;;;17.65;72.92
47670;BME280;33408;52.062;11.722;2022-07-06T05:55:34;101806.50;;;18.89;68.89
47670;BME280;33408;52.062;11.722;2022-07-06T05:58:01;101805.72;;;20.66;62.16
47670;BME280;33408;52.062;11.722;2022-07-06T06:00:28;101807.06;;;21.71;57.49
47670;BME280;33408;52.062;11.722;2022-07-06T06:02:55;101810.63;;;20.73;58.08
47670;BME280;33408;52.062;11.722;2022-07-06T06:05:22;101814.28;;;20.28;59.74
47670;BME280;33408;52.062;11.722;2022-07-06T06:07:50;101812.88;;;19.99;61.16
47670;BME280;33408;52.062;11.722;2022-07-06T06:10:18;101816.91;;;18.92;64.02
47670;BME280;33408;52.062;11.722;2022-07-06T06:12:47;101817.22;;;19.54;62.10
47670;BME280;33408;52.062;11.722;2022-07-06T06:15:13;101807.84;;;19.71;61.59
47670;BME280;33408;52.062;11.722;2022-07-06T06:17:40;101815.72;;;20.15;59.33
47670;BME280;33408;52.062;11.722;2022-07-06T06:20:08;101823.91;;;20.29;57.38
47670;BME280;33408;52.062;11.722;2022-07-06T06:22:44;101822.03;;;20.11;57.73
47670;BME280;33408;52.062;11.722;2022-07-06T06:25:12;101830.50;;;20.19;58.13
47670;BME280;33408;52.062;11.722;2022-07-06T06:27:39;101824.06;;;20.04;58.97
47670;BME280;33408;52.062;11.722;2022-07-06T06:30:06;101824.53;;;20.14;58.11
47670;BME280;33408;52.062;11.722;2022-07-06T06:32:33;101827.28;;;19.66;59.06
47670;BME280;33408;52.062;11.722;2022-07-06T06:35:00;101824.97;;;19.35;61.52
47670;BME280;33408;52.062;11.722;2022-07-06T06:37:26;101824.53;;;19.70;60.78
47670;BME280;33408;52.062;11.722;2022-07-06T06:39:53;101820.41;;;19.40;61.62
47670;BME280;33408;52.062;11.722;2022-07-06T06:42:21;101814.50;;;18.86;63.20
47670;BME280;33408;52.062;11.722;2022-07-06T06:44:48;101812.41;;;19.20;63.81
47670;BME280;33408;52.062;11.722;2022-07-06T06:47:14;101806.03;;;19.95;61.41
47670;BME280;33408;52.062;11.722;2022-07-06T06:49:41;101806.16;;;19.46;61.61
47670;BME280;33408;52.062;11.722;2022-07-06T06:52:07;101803.47;;;18.75;59.74
47670;BME280;33408;52.062;11.722;2022-07-06T06:54:34;101812.56;;;18.66;60.89
47670;BME280;33408;52.062;11.722;2022-07-06T06:57:01;101806.41;;;18.92;60.36
47670;BME280;33408;52.062;11.722;2022-07-06T06:59:29;101811.19;;;19.52;58.92
47670;BME280;33408;52.062;11.722;2022-07-06T07:01:55;101807.09;;;19.21;59.42
47670;BME280;33408;52.062;11.722;2022-07-06T07:04:22;101802.84;;;19.17;59.86
47670;BME280;33408;52.062;11.722;2022-07-06T07:06:48;101810.41;;;19.26;60.17
47670;BME280;33408;52.062;11.722;2022-07-06T07:09:15;101810.41;;;19.26;60.33
47670;BME280;33408;52.062;11.722;2022-07-06T07:11:42;101822.03;;;20.11;59.29
47670;BME280;33408;52.062;11.722;2022-07-06T07:14:08;101819.63;;;19.60;58.22
47670;BME280;33408;52.062;11.722;2022-07-06T07:16:36;101825.78;;;19.59;59.14
47670;BME280;33408;52.062;11.722;2022-07-06T07:19:03;101826.78;;;19.80;57.00
47670;BME280;33408;52.062;11.722;2022-07-06T07:21:29;101826.47;;;19.42;56.65
47670;BME280;33408;52.062;11.722;2022-07-06T07:23:56;101833.44;;;19.89;55.78
47670;BME280;33408;52.062;11.722;2022-07-06T07:26:23;101830.13;;;19.84;56.16
47670;BME280;33408;52.062;11.722;2022-07-06T07:28:49;101832.38;;;19.71;55.91
47670;BME280;33408;52.062;11.722;2022-07-06T07:31:16;101830.88;;;19.42;57.08
47670;BME280;33408;52.062;11.722;2022-07-06T07:33:44;101834.13;;;20.37;55.57
47670;BME280;33408;52.062;11.722;2022-07-06T07:36:10;101836.84;;;19.91;55.68
47670;BME280;33408;52.062;11.722;2022-07-06T07:38:37;101830.00;;;19.41;57.87
47670;BME280;33408;52.062;11.722;2022-07-06T07:41:03;101823.22;;;19.36;58.97
47670;BME280;33408;52.062;11.722;2022-07-06T07:43:31;101831.31;;;19.29;59.79
47670;BME280;33408;52.062;11.722;2022-07-06T07:45:58;101842.41;;;19.14;59.20
47670;BME280;33408;52.062;11.722;2022-07-06T07:48:24;101847.25;;;18.76;58.74
47670;BME280;33408;52.062;11.722;2022-07-06T07:50:52;101847.81;;;18.59;57.91
47670;BME280;33408;52.062;11.722;2022-07-06T07:53:19;101856.06;;;18.48;58.81
47670;BME280;33408;52.062;11.722;2022-07-06T07:55:45;101847.13;;;18.79;58.50
47670;BME280;33408;52.062;11.722;2022-07-06T07:58:12;101847.00;;;18.84;58.48
47670;BME280;33408;52.062;11.722;2022-07-06T08:00:38;101849.81;;;18.77;58.07
47670;BME280;33408;52.062;11.722;2022-07-06T08:03:05;101849.38;;;18.90;58.39
47670;BME280;33408;52.062;11.722;2022-07-06T08:05:32;101851.06;;;18.92;58.55
47670;BME280;33408;52.062;11.722;2022-07-06T08:07:59;101843.41;;;18.86;57.56
47670;BME280;33408;52.062;11.722;2022-07-06T08:10:26;101846.94;;;19.80;55.53
47670;BME280;33408;52.062;11.722;2022-07-06T08:12:53;101852.09;;;20.27;52.55
47670;BME280;33408;52.062;11.722;2022-07-06T08:15:19;101843.25;;;20.08;50.46
47670;BME280;33408;52.062;11.722;2022-07-06T08:17:46;101850.66;;;19.74;51.57
47670;BME280;33408;52.062;11.722;2022-07-06T08:20:13;101849.13;;;18.98;53.08
47670;BME280;33408;52.062;11.722;2022-07-06T08:22:41;101837.81;;;18.95;53.19
47670;BME280;33408;52.062;11.722;2022-07-06T08:25:10;101836.84;;;18.98;53.92
47670;BME280;33408;52.062;11.722;2022-07-06T08:27:36;101843.47;;;18.83;55.50
47670;BME280;33408;52.062;11.722;2022-07-06T08:30:04;101847.59;;;18.65;55.99
47670;BME280;33408;52.062;11.722;2022-07-06T08:32:30;101849.53;;;19.10;55.65
47670;BME280;33408;52.062;11.722;2022-07-06T08:34:57;101848.34;;;18.95;55.66
47670;BME280;33408;52.062;11.722;2022-07-06T08:37:23;101845.91;;;19.15;55.02
47670;BME280;33408;52.062;11.722;2022-07-06T08:39:50;101842.53;;;19.35;53.45
47670;BME280;33408;52.062;11.722;2022-07-06T08:42:19;101844.25;;;19.36;52.86
47670;BME280;33408;52.062;11.722;2022-07-06T08:44:46;101851.84;;;19.43;52.01
47670;BME280;33408;52.062;11.722;2022-07-06T08:47:13;101850.63;;;19.28;52.25
47670;BME280;33408;52.062;11.722;2022-07-06T08:49:40;101847.31;;;19.23;52.59
47670;BME280;33408;52.062;11.722;2022-07-06T08:52:07;101846.19;;;19.07;53.40
47670;BME280;33408;52.062;11.722;2022-07-06T08:54:34;101851.31;;;18.59;52.89
47670;BME280;33408;52.062;11.722;2022-07-06T08:57:02;101854.94;;;18.55;52.73
47670;BME280;33408;52.062;11.722;2022-07-06T08:59:30;101850.97;;;18.69;52.86
47670;BME280;33408;52.062;11.722;2022-07-06T09:01:57;101860.59;;;18.70;52.90
47670;BME280;33408;52.062;11.722;2022-07-06T09:04:25;101847.06;;;19.06;53.17
47670;BME280;33408;52.062;11.722;2022-07-06T09:06:52;101859.94;;;18.88;52.53
47670;BME280;33408;52.062;11.722;2022-07-06T09:09:23;101858.00;;;18.95;51.81
47670;BME280;33408;52.062;11.722;2022-07-06T09:11:51;101856.09;;;19.22;50.98
47670;BME280;33408;52.062;11.722;2022-07-06T09:14:18;101852.75;;;19.66;50.13
47670;BME280;33408;52.062;11.722;2022-07-06T09:16:51;101854.13;;;19.76;50.09
47670;BME280;33408;52.062;11.722;2022-07-06T09:19:18;101853.66;;;19.65;49.12
47670;BME280;33408;52.062;11.722;2022-07-06T09:21:44;101853.38;;;19.49;49.30
47670;BME280;33408;52.062;11.722;2022-07-06T09:24:12;101858.75;;;19.22;49.04
47670;BME280;33408;52.062;11.722;2022-07-06T09:26:39;101857.38;;;19.12;48.96
47670;BME280;33408;52.062;11.722;2022-07-06T09:29:06;101860.00;;;19.12;49.17
47670;BME280;33408;52.062;11.722;2022-07-06T09:31:33;101862.72;;;18.85;49.94
47670;BME280;33408;52.062;11.722;2022-07-06T09:34:03;101854.22;;;19.02;49.88
47670;BME280;33408;52.062;11.722;2022-07-06T09:36:37;101854.75;;;19.36;50.43
47670;BME280;33408;52.062;11.722;2022-07-06T09:39:15;101860.50;;;19.69;49.03
47670;BME280;33408;52.062;11.722;2022-07-06T09:41:41;101850.84;;;19.93;48.16
47670;BME280;33408;52.062;11.722;2022-07-06T09:44:09;101855.28;;;19.91;47.68
47670;BME280;33408;52.062;11.722;2022-07-06T09:46:40;101859.38;;;19.76;48.07
47670;BME280;33408;52.062;11.722;2022-07-06T09:49:08;101864.16;;;19.89;48.44
47670;BME280;33408;52.062;11.722;2022-07-06T09:51:36;101859.22;;;20.03;48.84
47670;BME280;33408;52.062;11.722;2022-07-06T09:54:05;101854.25;;;19.72;49.69
47670;BME280;33408;52.062;11.722;2022-07-06T09:56:36;101860.41;;;19.94;50.29
47670;BME280;33408;52.062;11.722;2022-07-06T09:59:07;101858.72;;;19.93;49.81
47670;BME280;33408;52.062;11.722;2022-07-06T10:01:35;101853.31;;;20.18;49.83
47670;BME280;33408;52.062;11.722;2022-07-06T10:04:02;101856.88;;;20.38;49.43
47670;BME280;33408;52.062;11.722;2022-07-06T10:06:30;101853.03;;;20.47;49.54
47670;BME280;33408;52.062;11.722;2022-07-06T10:08:58;101841.66;;;20.87;49.00
47670;BME280;33408;52.062;11.722;2022-07-06T10:11:25;101846.72;;;20.71;47.71
47670;BME280;33408;52.062;11.722;2022-07-06T10:13:54;101838.53;;;20.57;47.34
47670;BME280;33408;52.062;11.722;2022-07-06T10:16:22;101845.63;;;21.17;47.00
47670;BME280;33408;52.062;11.722;2022-07-06T10:18:50;101835.25;;;21.71;47.03
47670;BME280;33408;52.062;11.722;2022-07-06T10:21:19;101835.34;;;22.58;45.84
47670;BME280;33408;52.062;11.722;2022-07-06T10:23:48;101835.56;;;22.01;45.53
47670;BME280;33408;52.062;11.722;2022-07-06T10:26:16;101831.34;;;21.97;44.41
47670;BME280;33408;52.062;11.722;2022-07-06T10:28:43;101821.75;;;21.39;45.72
47670;BME280;33408;52.062;11.722;2022-07-06T10:31:10;101831.59;;;21.35;45.61
47670;BME280;33408;52.062;11.722;2022-07-06T10:33:37;101827.81;;;20.82;46.77
47670;BME280;33408;52.062;11.722;2022-07-06T10:36:05;101823.72;;;20.75;46.97
47670;BME280;33408;52.062;11.722;2022-07-06T10:38:34;101824.09;;;20.67;47.50
47670;BME280;33408;52.062;11.722;2022-07-06T10:41:06;101830.34;;;20.65;47.54
47670;BME280;33408;52.062;11.722;2022-07-06T10:43:33;101824.69;;;20.74;47.84
47670;BME280;33408;52.062;11.722;2022-07-06T10:46:05;101828.09;;;20.33;47.33
47670;BME280;33408;52.062;11.722;2022-07-06T10:48:36;101826.75;;;20.45;46.34
47670;BME280;33408;52.062;11.722;2022-07-06T10:51:03;101816.88;;;20.91;44.92
47670;BME280;33408;52.062;11.722;2022-07-06T10:53:32;101812.41;;;21.12;43.80
47670;BME280;33408;52.062;11.722;2022-07-06T10:56:00;101811.25;;;20.99;44.41
47670;BME280;33408;52.062;11.722;2022-07-06T10:58:41;101817.28;;;20.82;44.79
47670;BME280;33408;52.062;11.722;2022-07-06T11:01:12;101818.84;;;20.45;44.09
47670;BME280;33408;52.062;11.722;2022-07-06T11:03:41;101824.81;;;20.28;44.57
47670;BME280;33408;52.062;11.722;2022-07-06T11:06:10;101815.44;;;20.43;45.02
47670;BME280;33408;52.062;11.722;2022-07-06T11:08:45;101817.06;;;20.46;45.38
47670;BME280;33408;52.062;11.722;2022-07-06T11:11:13;101821.22;;;20.31;45.83
47670;BME280;33408;52.062;11.722;2022-07-06T11:13:48;101817.31;;;20.39;45.68
47670;BME280;33408;52.062;11.722;2022-07-06T11:16:15;101809.09;;;20.27;46.60
47670;BME280;33408;52.062;11.722;2022-07-06T11:18:47;101827.16;;;19.93;45.61
47670;BME280;33408;52.062;11.722;2022-07-06T11:21:19;101825.88;;;20.24;45.94
47670;BME280;33408;52.062;11.722;2022-07-06T11:23:47;101809.19;;;20.87;45.34
47670;BME280;33408;52.062;11.722;2022-07-06T11:26:15;101824.09;;;20.67;44.56
47670;BME280;33408;52.062;11.722;2022-07-06T11:28:42;101811.44;;;20.75;43.34
47670;BME280;33408;52.062;11.722;2022-07-06T11:31:12;101814.72;;;20.81;43.72
47670;BME280;33408;52.062;11.722;2022-07-06T11:33:39;101812.13;;;20.38;44.41
47670;BME280;33408;52.062;11.722;2022-07-06T11:36:16;101812.53;;;20.70;44.79
47670;BME280;33408;52.062;11.722;2022-07-06T11:38:45;101813.56;;;20.67;44.57
47670;BME280;33408;52.062;11.722;2022-07-06T11:41:12;101810.56;;;21.15;44.25
47670;BME280;33408;52.062;11.722;2022-07-06T11:43:44;101806.50;;;21.26;44.57
47670;BME280;33408;52.062;11.722;2022-07-06T11:46:28;101800.78;;;21.17;44.53
47670;BME280;33408;52.062;11.722;2022-07-06T11:48:56;101805.53;;;21.48;43.66
47670;BME280;33408;52.062;11.722;2022-07-06T11:51:24;101807.78;;;21.56;42.69
47670;BME280;33408;52.062;11.722;2022-07-06T11:53:54;101795.09;;;21.45;41.94
47670;BME280;33408;52.062;11.722;2022-07-06T11:56:21;101794.97;;;21.84;41.96
47670;BME280;33408;52.062;11.722;2022-07-06T11:58:55;101793.31;;;22.01;40.24
47670;BME280;33408;52.062;11.722;2022-07-06T12:01:23;101794.59;;;21.92;40.13
47670;BME280;33408;52.062;11.722;2022-07-06T12:03:57;101797.56;;;22.03;38.81
47670;BME280;33408;52.062;11.722;2022-07-06T12:06:25;101800.50;;;21.97;38.64
47670;BME280;33408;52.062;11.722;2022-07-06T12:08:53;101797.25;;;21.92;38.29
47670;BME280;33408;52.062;11.722;2022-07-06T12:11:24;101784.34;;;21.86;38.67
47670;BME280;33408;52.062;11.722;2022-07-06T12:13:52;101787.13;;;21.27;39.51
47670;BME280;33408;52.062;11.722;2022-07-06T12:16:19;101793.09;;;21.31;38.82
47670;BME280;33408;52.062;11.722;2022-07-06T12:18:48;101784.56;;;21.26;39.35
47670;BME280;33408;52.062;11.722;2022-07-06T12:21:17;101776.81;;;21.96;38.87
47670;BME280;33408;52.062;11.722;2022-07-06T12:23:48;101776.94;;;22.29;37.88
47670;BME280;33408;52.062;11.722;2022-07-06T12:26:17;101781.13;;;23.34;36.49
47670;BME280;33408;52.062;11.722;2022-07-06T12:28:44;101774.59;;;23.55;36.92
47670;BME280;33408;52.062;11.722;2022-07-06T12:31:11;101772.03;;;23.70;35.80
47670;BME280;33408;52.062;11.722;2022-07-06T12:33:56;101764.50;;;22.98;37.00
47670;BME280;33408;52.062;11.722;2022-07-06T12:36:24;101765.03;;;22.20;37.95
47670;BME280;33408;52.062;11.722;2022-07-06T12:38:51;101765.38;;;22.32;38.73
47670;BME280;33408;52.062;11.722;2022-07-06T12:41:25;101761.16;;;22.45;37.73
47670;BME280;33408;52.062;11.722;2022-07-06T12:44:04;101758.03;;;23.04;36.01